Time,TemperatureF,DewpointF,PressureIn,WindDirection,WindDirectionDegrees,WindSpeedMPH,WindSpeedGustMPH,Humidity,HourlyPrecipIn,Conditions,Clouds,dailyrainin,SoftwareType,DateUTC
2013-01-24 00:02:00,35.0,21.0,30.25,North,5,9.0,12.0,56,-99.99,,,-99.99,,2013-01-24 06:02:00,
2013-01-24 00:12:00,35.0,21.0,30.25,North,0,10.0,16.0,55,-99.99,,,-99.99,,2013-01-24 06:12:00,
2013-01-24 00:22:00,35.0,21.0,30.25,North,0,10.0,16.0,55,-99.99,,,-99.99,,2013-01-24 06:22:00,
2013-01-24 00:32:00,35.0,21.0,30.26,NNE,25,7.0,15.0,56,-99.99,,,-99.99,,2013-01-24 06:32:00,
2013-01-24 00:42:00,35.0,20.0,30.26,NNE,15,10.0,15.0,56,-99.99,,,-99.99,,2013-01-24 06:42:00,
2013-01-24 00:52:00,35.0,20.0,30.26,NNE,15,10.0,15.0,56,-99.99,,,-99.99,,2013-01-24 06:52:00,
2013-01-24 01:03:00,34.0,19.0,30.25,NE,35,12.0,17.0,55,-99.99,,,-99.99,,2013-01-24 07:03:00,
2013-01-24 01:12:00,33.0,19.0,30.25,North,5,10.0,15.0,56,-99.99,,,-99.99,,2013-01-24 07:12:00,
2013-01-24 01:23:00,33.0,19.0,30.25,North,5,10.0,15.0,56,-99.99,,,-99.99,,2013-01-24 07:23:00,
2013-01-24 01:33:00,33.0,19.0,30.26,NNE,25,11.0,18.0,57,-99.99,,,-99.99,,2013-01-24 07:33:00,
2013-01-24 01:42:00,32.0,19.0,30.26,North,5,10.0,14.0,58,-99.99,,,-99.99,,2013-01-24 07:42:00,
2013-01-24 01:52:00,32.0,19.0,30.26,North,5,10.0,14.0,58,-99.99,,,-99.99,,2013-01-24 07:52:00,
2013-01-24 02:02:00,32.0,19.0,30.27,North,10,11.0,18.0,58,-99.99,,,-99.99,,2013-01-24 08:02:00,
2013-01-24 02:12:00,31.0,19.0,30.26,North,10,10.0,17.0,59,-99.99,,,-99.99,,2013-01-24 08:12:00,
2013-01-24 02:23:00,31.0,19.0,30.26,North,10,10.0,17.0,59,-99.99,,,-99.99,,2013-01-24 08:23:00,
2013-01-24 02:33:00,30.0,19.0,30.27,NNE,15,8.0,15.0,62,-99.99,,,-99.99,,2013-01-24 08:33:00,
2013-01-24 02:43:00,30.0,19.0,30.27,NNE,20,7.0,12.0,62,-99.99,,,-99.99,,2013-01-24 08:43:00,
2013-01-24 02:52:00,30.0,19.0,30.27,NNE,20,7.0,12.0,62,-99.99,,,-99.99,,2013-01-24 08:52:00,
2013-01-24 03:03:00,29.0,18.0,30.26,NE,45,8.0,15.0,62,-99.99,,,-99.99,,2013-01-24 09:03:00,
2013-01-24 03:13:00,29.0,17.0,30.27,NNE,15,9.0,15.0,60,-99.99,,,-99.99,,2013-01-24 09:13:00,
2013-01-24 03:23:00,29.0,17.0,30.27,NNE,15,9.0,15.0,60,-99.99,,,-99.99,,2013-01-24 09:23:00,
2013-01-24 03:33:00,29.0,16.0,30.29,NNE,30,9.0,14.0,59,-99.99,,,-99.99,,2013-01-24 09:33:00,
2013-01-24 03:43:00,29.0,16.0,30.29,NNE,25,6.0,14.0,59,-99.99,,,-99.99,,2013-01-24 09:43:00,
2013-01-24 03:52:00,29.0,16.0,30.29,NNE,25,6.0,14.0,59,-99.99,,,-99.99,,2013-01-24 09:52:00,
2013-01-24 04:03:00,28.0,15.0,30.29,NNE,30,10.0,17.0,57,-99.99,,,-99.99,,2013-01-24 10:03:00,
2013-01-24 04:12:00,28.0,15.0,30.29,NE,35,9.0,17.0,57,-99.99,,,-99.99,,2013-01-24 10:12:00,
2013-01-24 04:23:00,28.0,15.0,30.29,NE,35,9.0,17.0,57,-99.99,,,-99.99,,2013-01-24 10:23:00,
2013-01-24 04:33:00,28.0,14.0,30.30,NE,40,9.0,18.0,56,-99.99,,,-99.99,,2013-01-24 10:33:00,
2013-01-24 04:43:00,28.0,13.0,30.30,NNE,30,10.0,16.0,54,-99.99,,,-99.99,,2013-01-24 10:43:00,
2013-01-24 04:52:00,28.0,13.0,30.30,NNE,30,10.0,16.0,54,-99.99,,,-99.99,,2013-01-24 10:52:00,
2013-01-24 05:03:00,27.0,11.0,30.30,NE,40,13.0,24.0,50,-99.99,,,-99.99,,2013-01-24 11:03:00,
2013-01-24 05:12:00,27.0,11.0,30.30,NE,40,12.0,21.0,51,-99.99,,,-99.99,,2013-01-24 11:12:00,
2013-01-24 05:23:00,27.0,11.0,30.30,NE,40,12.0,21.0,51,-99.99,,,-99.99,,2013-01-24 11:23:00,
2013-01-24 05:33:00,26.0,12.0,30.31,NE,45,13.0,20.0,54,-99.99,,,-99.99,,2013-01-24 11:33:00,
2013-01-24 05:43:00,26.0,13.0,30.31,NE,35,11.0,19.0,56,-99.99,,,-99.99,,2013-01-24 11:43:00,
2013-01-24 05:53:00,26.0,13.0,30.31,NE,35,11.0,19.0,56,-99.99,,,-99.99,,2013-01-24 11:53:00,
2013-01-24 06:03:00,26.0,13.0,30.31,ENE,70,10.0,15.0,58,-99.99,,,-99.99,,2013-01-24 12:03:00,
2013-01-24 06:12:00,26.0,13.0,30.31,NE,55,7.0,14.0,59,-99.99,,,-99.99,,2013-01-24 12:12:00,
2013-01-24 06:23:00,26.0,13.0,30.31,NE,55,7.0,14.0,59,-99.99,,,-99.99,,2013-01-24 12:23:00,
2013-01-24 06:33:00,25.0,11.0,30.31,ENE,70,11.0,14.0,54,-99.99,,,-99.99,,2013-01-24 12:33:00,
2013-01-24 06:43:00,24.0,9.0,30.31,NE,50,14.0,19.0,51,-99.99,,,-99.99,,2013-01-24 12:43:00,
2013-01-24 06:53:00,24.0,9.0,30.31,NE,50,14.0,19.0,51,-99.99,,,-99.99,,2013-01-24 12:53:00,
2013-01-24 07:03:00,24.0,9.0,30.32,NE,55,9.0,16.0,53,-99.99,,,-99.99,,2013-01-24 13:03:00,
2013-01-24 07:13:00,24.0,9.0,30.31,ENE,65,12.0,17.0,52,-99.99,,,-99.99,,2013-01-24 13:13:00,
2013-01-24 07:23:00,24.0,9.0,30.31,ENE,65,12.0,17.0,52,-99.99,,,-99.99,,2013-01-24 13:23:00,
2013-01-24 07:33:00,23.0,8.0,30.32,NE,50,11.0,17.0,52,-99.99,,,-99.99,,2013-01-24 13:33:00,
2013-01-24 07:43:00,23.0,8.0,30.32,ENE,60,13.0,19.0,52,-99.99,,,-99.99,,2013-01-24 13:43:00,
2013-01-24 07:53:00,23.0,8.0,30.32,ENE,60,13.0,19.0,52,-99.99,,,-99.99,,2013-01-24 13:53:00,
2013-01-24 08:03:00,22.0,8.0,30.31,ENE,65,11.0,15.0,54,-99.99,,,-99.99,,2013-01-24 14:03:00,
2013-01-24 08:12:00,22.0,8.0,30.31,ENE,65,9.0,14.0,55,-99.99,,,-99.99,,2013-01-24 14:12:00,
2013-01-24 08:23:00,22.0,8.0,30.31,ENE,65,9.0,14.0,55,-99.99,,,-99.99,,2013-01-24 14:23:00,
2013-01-24 08:33:00,22.0,9.0,30.32,ENE,75,9.0,13.0,57,-99.99,,,-99.99,,2013-01-24 14:33:00,
2013-01-24 08:43:00,22.0,9.0,30.33,ENE,65,14.0,17.0,57,-99.99,,,-99.99,,2013-01-24 14:43:00,
2013-01-24 08:53:00,22.0,9.0,30.33,ENE,65,14.0,17.0,57,-99.99,,,-99.99,,2013-01-24 14:53:00,
2013-01-24 09:03:00,22.0,9.0,30.34,ENE,65,15.0,20.0,56,-99.99,,,-99.99,,2013-01-24 15:03:00,
2013-01-24 09:12:00,22.0,9.0,30.34,ENE,65,12.0,18.0,56,-99.99,,,-99.99,,2013-01-24 15:12:00,
2013-01-24 09:23:00,22.0,9.0,30.34,ENE,65,12.0,18.0,56,-99.99,,,-99.99,,2013-01-24 15:23:00,
2013-01-24 09:30:00,24.0,9.0,30.34,East,85,15.0,18.0,53,-99.99,,,-99.99,,2013-01-24 15:30:00,
2013-01-24 09:33:00,22.0,9.0,30.34,East,95,12.0,18.0,55,-99.99,,,-99.99,,2013-01-24 15:33:00,
2013-01-24 09:43:00,23.0,9.0,30.35,ENE,70,12.0,19.0,55,-99.99,,,-99.99,,2013-01-24 15:43:00,
2013-01-24 09:53:00,23.0,9.0,30.35,ENE,70,12.0,19.0,55,-99.99,,,-99.99,,2013-01-24 15:53:00,
2013-01-24 10:03:00,23.0,9.0,30.35,East,80,13.0,19.0,54,-99.99,,,-99.99,,2013-01-24 16:03:00,
2013-01-24 10:12:00,24.0,9.0,30.34,East,85,15.0,18.0,53,-99.99,,,-99.99,,2013-01-24 16:12:00,
2013-01-24 10:23:00,24.0,9.0,30.34,East,85,15.0,18.0,53,-99.99,,,-99.99,,2013-01-24 16:23:00,
2013-01-24 15:02:00,33.0,11.0,30.21,East,100,11.0,16.0,40,-99.99,,,-99.99,,2013-01-24 21:02:00,
2013-01-24 15:12:00,33.0,10.0,30.21,ESE,115,12.0,20.0,39,-99.99,,,-99.99,,2013-01-24 21:12:00,
2013-01-24 15:22:00,33.0,10.0,30.21,ESE,115,12.0,20.0,39,-99.99,,,-99.99,,2013-01-24 21:22:00,
2013-01-24 15:33:00,33.0,11.0,30.21,ESE,105,11.0,19.0,40,-99.99,,,-99.99,,2013-01-24 21:33:00,
2013-01-24 15:43:00,33.0,10.0,30.21,East,95,15.0,19.0,39,-99.99,,,-99.99,,2013-01-24 21:43:00,
2013-01-24 15:52:00,33.0,10.0,30.21,East,95,15.0,19.0,39,-99.99,,,-99.99,,2013-01-24 21:52:00,
2013-01-24 16:03:00,33.0,10.0,30.20,ESE,105,15.0,19.0,38,-99.99,,,-99.99,,2013-01-24 22:03:00,
2013-01-24 16:12:00,33.0,11.0,30.19,East,100,12.0,20.0,39,-99.99,,,-99.99,,2013-01-24 22:12:00,
2013-01-24 16:22:00,33.0,11.0,30.19,East,100,12.0,20.0,39,-99.99,,,-99.99,,2013-01-24 22:22:00,
2013-01-24 16:32:00,32.0,10.0,30.18,East,95,13.0,18.0,38,-99.99,,,-99.99,,2013-01-24 22:32:00,
2013-01-24 16:42:00,32.0,10.0,30.18,East,100,11.0,19.0,39,-99.99,,,-99.99,,2013-01-24 22:42:00,
2013-01-24 16:52:00,32.0,10.0,30.18,East,100,11.0,19.0,39,-99.99,,,-99.99,,2013-01-24 22:52:00,
2013-01-24 17:02:00,32.0,11.0,30.17,SE,135,10.0,18.0,40,-99.99,,,-99.99,,2013-01-24 23:02:00,
2013-01-24 17:12:00,32.0,9.0,30.18,SE,125,11.0,22.0,38,-99.99,,,-99.99,,2013-01-24 23:12:00,
2013-01-24 17:22:00,32.0,9.0,30.18,SE,125,11.0,22.0,38,-99.99,,,-99.99,,2013-01-24 23:22:00,
2013-01-24 17:32:00,32.0,10.0,30.17,ESE,115,12.0,20.0,40,-99.99,,,-99.99,,2013-01-24 23:32:00,
2013-01-24 17:42:00,32.0,11.0,30.18,ESE,120,10.0,18.0,41,-99.99,,,-99.99,,2013-01-24 23:42:00,
2013-01-24 17:52:00,32.0,11.0,30.18,ESE,120,10.0,18.0,41,-99.99,,,-99.99,,2013-01-24 23:52:00,
2013-01-24 18:02:00,31.0,9.0,30.16,ESE,105,12.0,19.0,39,-99.99,,,-99.99,,2013-01-25 00:02:00,
2013-01-24 18:12:00,31.0,9.0,30.15,ESE,115,12.0,21.0,39,-99.99,,,-99.99,,2013-01-25 00:12:00,
2013-01-24 18:22:00,31.0,10.0,30.15,ESE,110,11.0,21.0,41,-99.99,,,-99.99,,2013-01-25 00:22:00,
2013-01-24 18:32:00,31.0,10.0,30.15,ESE,110,11.0,21.0,41,-99.99,,,-99.99,,2013-01-25 00:32:00,
2013-01-24 18:42:00,31.0,10.0,30.16,East,95,13.0,21.0,41,-99.99,,,-99.99,,2013-01-25 00:42:00,
2013-01-24 18:52:00,31.0,10.0,30.16,East,95,13.0,21.0,41,-99.99,,,-99.99,,2013-01-25 00:52:00,
2013-01-24 19:02:00,30.0,11.0,30.16,East,100,12.0,20.0,44,-99.99,,,-99.99,,2013-01-25 01:02:00,
2013-01-24 19:12:00,30.0,10.0,30.15,ESE,110,12.0,19.0,43,-99.99,,,-99.99,,2013-01-25 01:12:00,
2013-01-24 19:22:00,30.0,10.0,30.15,ESE,110,12.0,19.0,43,-99.99,,,-99.99,,2013-01-25 01:22:00,
2013-01-24 19:32:00,30.0,10.0,30.16,ESE,110,10.0,18.0,42,-99.99,,,-99.99,,2013-01-25 01:32:00,
2013-01-24 19:42:00,30.0,9.0,30.15,SE,130,9.0,22.0,41,-99.99,,,-99.99,,2013-01-25 01:42:00,
2013-01-24 19:52:00,30.0,9.0,30.15,SE,130,9.0,22.0,41,-99.99,,,-99.99,,2013-01-25 01:52:00,
2013-01-24 20:02:00,30.0,10.0,30.12,SE,125,10.0,16.0,41,-99.99,,,-99.99,,2013-01-25 02:02:00,
2013-01-24 20:11:00,30.0,8.0,30.11,SE,145,15.0,23.0,39,-99.99,,,-99.99,,2013-01-25 02:11:00,
2013-01-24 20:22:00,30.0,8.0,30.11,SE,145,15.0,23.0,39,-99.99,,,-99.99,,2013-01-25 02:22:00,
2013-01-24 20:32:00,30.0,9.0,30.11,SE,145,20.0,30.0,41,-99.99,,,-99.99,,2013-01-25 02:32:00,
2013-01-24 20:42:00,30.0,11.0,30.12,SE,145,18.0,27.0,45,-99.99,,,-99.99,,2013-01-25 02:42:00,
2013-01-24 20:52:00,30.0,11.0,30.12,SE,145,18.0,27.0,45,-99.99,,,-99.99,,2013-01-25 02:52:00,
2013-01-24 21:02:00,30.0,12.0,30.13,SE,145,13.0,29.0,46,-99.99,,,-99.99,,2013-01-25 03:02:00,
2013-01-24 21:12:00,30.0,11.0,30.13,SE,140,12.0,23.0,45,-99.99,,,-99.99,,2013-01-25 03:12:00,
2013-01-24 21:22:00,30.0,11.0,30.13,SE,140,12.0,23.0,45,-99.99,,,-99.99,,2013-01-25 03:22:00,
2013-01-24 21:33:00,30.0,10.0,30.11,SE,145,13.0,22.0,44,-99.99,,,-99.99,,2013-01-25 03:33:00,
2013-01-24 21:42:00,30.0,10.0,30.13,SE,140,12.0,20.0,42,-99.99,,,-99.99,,2013-01-25 03:42:00,
2013-01-24 21:52:00,30.0,10.0,30.13,SE,140,12.0,20.0,42,-99.99,,,-99.99,,2013-01-25 03:52:00,
2013-01-24 22:02:00,30.0,8.0,30.11,SSE,150,17.0,29.0,40,-99.99,,,-99.99,,2013-01-25 04:02:00,
2013-01-24 22:12:00,29.0,8.0,30.10,SE,140,18.0,26.0,40,-99.99,,,-99.99,,2013-01-25 04:12:00,
2013-01-24 22:22:00,29.0,8.0,30.10,SE,140,18.0,26.0,40,-99.99,,,-99.99,,2013-01-25 04:22:00,
2013-01-24 22:32:00,29.0,9.0,30.09,SE,145,22.0,27.0,42,-99.99,,,-99.99,,2013-01-25 04:32:00,
2013-01-24 22:42:00,29.0,9.0,30.09,SE,140,18.0,29.0,43,-99.99,,,-99.99,,2013-01-25 04:42:00,
2013-01-24 22:51:00,29.0,9.0,30.09,SE,140,18.0,29.0,43,-99.99,,,-99.99,,2013-01-25 04:51:00,
2013-01-24 23:03:00,29.0,11.0,30.10,SE,125,15.0,25.0,46,-99.99,,,-99.99,,2013-01-25 05:03:00,
2013-01-24 23:12:00,29.0,11.0,30.09,SE,140,14.0,19.0,47,-99.99,,,-99.99,,2013-01-25 05:12:00,
2013-01-24 23:22:00,29.0,11.0,30.09,SE,140,14.0,19.0,47,-99.99,,,-99.99,,2013-01-25 05:22:00,
2013-01-24 23:32:00,28.0,14.0,30.08,SE,145,15.0,27.0,55,-99.99,,,-99.99,,2013-01-25 05:32:00,
2013-01-24 23:43:00,28.0,13.0,30.09,SE,130,18.0,24.0,53,-99.99,,,-99.99,,2013-01-25 05:43:00,
2013-01-24 23:52:00,28.0,13.0,30.09,SE,130,18.0,24.0,53,-99.99,,,-99.99,,2013-01-25 05:52:00,